Terminal Aerodrome Forecast
Issued by NWS Los Angeles, CA

Home | Current Version | Previous Version | Text Only | Print | Product List | Glossary On
Versions: 1 2 3 4 5 6 7 8 9 10 11 12 13 14 15 16 17 18 19 20 21 22 23 24 25 26 27 28 29
347
FTUS46 KLOX 241138
TAFSMX
TAF
KSMX 241138Z 2412/2512 VRB03KT P6SM SCT120 BKN250
     FM241800 22004KT P6SM BKN100 OVC250
     FM242200 26012KT P6SM SCT070 OVC100
     FM250300 26008KT P6SM -RA OVC080
     FM250600 22008KT P6SM -RA SCT015 OVC025
     FM250900 VRB03KT P6SM -SHRA SCT007 BKN015=

USA.gov is the U.S. government's official web portal to all federal, state and local government web resources and services.